Garnish, Canada
Current Conditions -  °F | °C
As of 5:00 PM on Wednesday 26 Nov 2014 (Local Time) from LFVP Reporting Station
Clear Clear  
Wind Chill: 32°   Ceiling: Unl
Heat Index: 41°   Visibility: 6mi
Dew Point: 36°   Wind: 20mph
Humidity: 81%   Direction: 280°W
Pressure: 30.09"   Gusts: NA
Location:  47.23°N, 55.37°W
Report Text: LFVP 262000Z 28017KT CAVOK 05/02 Q1019 NOSIG
Loading
Personal Weather Stations






























Interactive Weather Map New forecast layout! Learn more

10-Day Weather Forecast

Advertisements
Track Severe Weather on mobile